sensor_id;sensor_type;location;lat;lon;timestamp;temperature;humidity
72591;SHT31;60625;51.212;5.952;2023-05-10T00:02:44;14.05;87.53
72591;SHT31;60625;51.212;5.952;2023-05-10T00:07:45;14.06;87.58
72591;SHT31;60625;51.212;5.952;2023-05-10T00:12:45;14.05;87.56
72591;SHT31;60625;51.212;5.952;2023-05-10T00:17:45;14.05;87.57
72591;SHT31;60625;51.212;5.952;2023-05-10T00:22:46;14.05;87.56
72591;SHT31;60625;51.212;5.952;2023-05-10T00:27:46;14.04;87.48
72591;SHT31;60625;51.212;5.952;2023-05-10T00:32:47;14.03;87.55
72591;SHT31;60625;51.212;5.952;2023-05-10T00:37:50;14.03;87.50
72591;SHT31;60625;51.212;5.952;2023-05-10T00:42:50;14.03;87.37
72591;SHT31;60625;51.212;5.952;2023-05-10T00:47:51;14.01;87.30
72591;SHT31;60625;51.212;5.952;2023-05-10T00:52:55;14.00;87.29
72591;SHT31;60625;51.212;5.952;2023-05-10T00:57:56;14.01;87.36
72591;SHT31;60625;51.212;5.952;2023-05-10T01:02:56;14.02;87.38
72591;SHT31;60625;51.212;5.952;2023-05-10T01:07:58;14.03;87.33
72591;SHT31;60625;51.212;5.952;2023-05-10T01:12:58;14.02;87.33
72591;SHT31;60625;51.212;5.952;2023-05-10T01:18:00;13.98;87.50
72591;SHT31;60625;51.212;5.952;2023-05-10T01:34:02;13.91;87.74
72591;SHT31;60625;51.212;5.952;2023-05-10T01:44:34;13.90;87.82
72591;SHT31;60625;51.212;5.952;2023-05-10T01:49:41;13.90;87.90
72591;SHT31;60625;51.212;5.952;2023-05-10T01:54:55;13.89;87.97
72591;SHT31;60625;51.212;5.952;2023-05-10T02:00:04;13.90;88.00
72591;SHT31;60625;51.212;5.952;2023-05-10T02:05:15;13.90;88.08
72591;SHT31;60625;51.212;5.952;2023-05-10T02:10:17;13.88;88.19
72591;SHT31;60625;51.212;5.952;2023-05-10T02:15:22;13.88;88.20
72591;SHT31;60625;51.212;5.952;2023-05-10T02:20:24;13.89;88.21
72591;SHT31;60625;51.212;5.952;2023-05-10T02:25:26;13.90;88.18
72591;SHT31;60625;51.212;5.952;2023-05-10T02:30:27;13.89;88.15
72591;SHT31;60625;51.212;5.952;2023-05-10T02:35:31;13.88;88.15
72591;SHT31;60625;51.212;5.952;2023-05-10T02:40:33;13.86;88.11
72591;SHT31;60625;51.212;5.952;2023-05-10T02:45:36;13.86;88.12
72591;SHT31;60625;51.212;5.952;2023-05-10T02:50:38;13.86;88.06
72591;SHT31;60625;51.212;5.952;2023-05-10T02:55:44;13.86;87.86
72591;SHT31;60625;51.212;5.952;2023-05-10T03:00:51;13.87;87.79
72591;SHT31;60625;51.212;5.952;2023-05-10T03:05:52;13.88;87.71
72591;SHT31;60625;51.212;5.952;2023-05-10T03:16:22;13.85;87.76
72591;SHT31;60625;51.212;5.952;2023-05-10T03:21:28;13.84;87.81
72591;SHT31;60625;51.212;5.952;2023-05-10T03:26:30;13.83;87.82
72591;SHT31;60625;51.212;5.952;2023-05-10T03:31:42;13.82;87.78
72591;SHT31;60625;51.212;5.952;2023-05-10T03:36:43;13.82;87.72
72591;SHT31;60625;51.212;5.952;2023-05-10T03:41:44;13.82;87.70
72591;SHT31;60625;51.212;5.952;2023-05-10T03:46:45;13.82;87.68
72591;SHT31;60625;51.212;5.952;2023-05-10T03:51:46;13.81;87.61
72591;SHT31;60625;51.212;5.952;2023-05-10T03:56:46;13.79;87.60
72591;SHT31;60625;51.212;5.952;2023-05-10T04:01:49;13.78;87.43
72591;SHT31;60625;51.212;5.952;2023-05-10T04:06:49;13.75;87.32
72591;SHT31;60625;51.212;5.952;2023-05-10T04:11:50;13.74;87.30
72591;SHT31;60625;51.212;5.952;2023-05-10T04:16:51;13.73;87.29
72591;SHT31;60625;51.212;5.952;2023-05-10T04:21:51;13.71;87.21
72591;SHT31;60625;51.212;5.952;2023-05-10T04:26:51;13.69;87.10
72591;SHT31;60625;51.212;5.952;2023-05-10T04:31:54;13.68;87.04
72591;SHT31;60625;51.212;5.952;2023-05-10T04:36:55;13.67;87.00
72591;SHT31;60625;51.212;5.952;2023-05-10T04:41:56;13.66;87.07
72591;SHT31;60625;51.212;5.952;2023-05-10T04:46:56;13.67;87.13
72591;SHT31;60625;51.212;5.952;2023-05-10T04:51:57;13.68;87.26
72591;SHT31;60625;51.212;5.952;2023-05-10T04:56:57;13.69;87.29
72591;SHT31;60625;51.212;5.952;2023-05-10T05:01:57;13.69;87.40
72591;SHT31;60625;51.212;5.952;2023-05-10T05:06:58;13.69;87.40
72591;SHT31;60625;51.212;5.952;2023-05-10T05:11:59;13.68;87.40
72591;SHT31;60625;51.212;5.952;2023-05-10T05:17:00;13.66;87.50
72591;SHT31;60625;51.212;5.952;2023-05-10T05:22:00;13.65;87.54
72591;SHT31;60625;51.212;5.952;2023-05-10T05:27:01;13.66;87.57
72591;SHT31;60625;51.212;5.952;2023-05-10T05:32:02;13.66;87.56
72591;SHT31;60625;51.212;5.952;2023-05-10T05:37:02;13.67;87.50
72591;SHT31;60625;51.212;5.952;2023-05-10T05:42:03;13.68;87.44
72591;SHT31;60625;51.212;5.952;2023-05-10T05:47:04;13.71;87.47
72591;SHT31;60625;51.212;5.952;2023-05-10T05:52:06;13.75;87.41
72591;SHT31;60625;51.212;5.952;2023-05-10T05:57:06;13.77;87.33
72591;SHT31;60625;51.212;5.952;2023-05-10T06:02:08;13.77;87.32
72591;SHT31;60625;51.212;5.952;2023-05-10T06:07:09;13.79;87.24
72591;SHT31;60625;51.212;5.952;2023-05-10T06:12:10;13.78;87.21
72591;SHT31;60625;51.212;5.952;2023-05-10T06:17:11;13.79;87.13
72591;SHT31;60625;51.212;5.952;2023-05-10T06:22:12;13.82;87.10
72591;SHT31;60625;51.212;5.952;2023-05-10T06:27:12;13.83;86.93
72591;SHT31;60625;51.212;5.952;2023-05-10T06:32:13;13.81;86.72
72591;SHT31;60625;51.212;5.952;2023-05-10T06:37:13;13.85;86.71
72591;SHT31;60625;51.212;5.952;2023-05-10T06:42:14;13.92;86.60
72591;SHT31;60625;51.212;5.952;2023-05-10T06:47:14;14.00;86.46
72591;SHT31;60625;51.212;5.952;2023-05-10T06:52:14;14.14;86.21
72591;SHT31;60625;51.212;5.952;2023-05-10T06:57:15;14.35;85.62
72591;SHT31;60625;51.212;5.952;2023-05-10T07:02:15;14.52;84.36
72591;SHT31;60625;51.212;5.952;2023-05-10T07:07:16;14.64;84.17
72591;SHT31;60625;51.212;5.952;2023-05-10T07:12:17;14.72;83.54
72591;SHT31;60625;51.212;5.952;2023-05-10T07:17:18;14.69;82.75
72591;SHT31;60625;51.212;5.952;2023-05-10T07:22:18;14.66;82.63
72591;SHT31;60625;51.212;5.952;2023-05-10T07:27:19;14.65;82.47
72591;SHT31;60625;51.212;5.952;2023-05-10T07:32:20;14.65;82.75
72591;SHT31;60625;51.212;5.952;2023-05-10T07:37:21;14.63;82.69
72591;SHT31;60625;51.212;5.952;2023-05-10T07:42:22;14.62;82.57
72591;SHT31;60625;51.212;5.952;2023-05-10T07:47:23;14.62;82.18
72591;SHT31;60625;51.212;5.952;2023-05-10T07:52:23;14.68;82.32
72591;SHT31;60625;51.212;5.952;2023-05-10T07:57:24;14.72;81.81
72591;SHT31;60625;51.212;5.952;2023-05-10T08:02:25;14.73;81.81
72591;SHT31;60625;51.212;5.952;2023-05-10T08:07:25;14.72;82.02
72591;SHT31;60625;51.212;5.952;2023-05-10T08:12:26;14.68;82.11
72591;SHT31;60625;51.212;5.952;2023-05-10T08:17:26;14.71;82.32
72591;SHT31;60625;51.212;5.952;2023-05-10T08:22:27;14.77;82.32
72591;SHT31;60625;51.212;5.952;2023-05-10T08:27:27;14.84;82.38
72591;SHT31;60625;51.212;5.952;2023-05-10T08:32:27;14.88;82.14
72591;SHT31;60625;51.212;5.952;2023-05-10T08:37:29;14.94;82.17
72591;SHT31;60625;51.212;5.952;2023-05-10T08:42:30;15.03;81.94
72591;SHT31;60625;51.212;5.952;2023-05-10T08:47:37;15.05;81.36
72591;SHT31;60625;51.212;5.952;2023-05-10T08:52:39;15.07;81.19
72591;SHT31;60625;51.212;5.952;2023-05-10T08:57:41;15.11;80.96
72591;SHT31;60625;51.212;5.952;2023-05-10T09:02:41;15.21;80.71
72591;SHT31;60625;51.212;5.952;2023-05-10T09:07:43;15.33;80.71
72591;SHT31;60625;51.212;5.952;2023-05-10T09:12:44;15.38;80.62
72591;SHT31;60625;51.212;5.952;2023-05-10T09:17:46;15.36;80.28
72591;SHT31;60625;51.212;5.952;2023-05-10T09:22:47;15.24;79.78
72591;SHT31;60625;51.212;5.952;2023-05-10T09:27:48;15.18;80.06
72591;SHT31;60625;51.212;5.952;2023-05-10T09:32:50;15.20;79.83
72591;SHT31;60625;51.212;5.952;2023-05-10T09:37:53;15.30;79.82
72591;SHT31;60625;51.212;5.952;2023-05-10T09:42:56;15.47;79.36
72591;SHT31;60625;51.212;5.952;2023-05-10T09:47:58;15.71;79.14
72591;SHT31;60625;51.212;5.952;2023-05-10T09:53:02;15.85;78.40
72591;SHT31;60625;51.212;5.952;2023-05-10T09:58:03;15.86;78.58
72591;SHT31;60625;51.212;5.952;2023-05-10T10:03:11;15.77;79.08
72591;SHT31;60625;51.212;5.952;2023-05-10T10:08:15;15.70;79.08
72591;SHT31;60625;51.212;5.952;2023-05-10T10:13:18;15.62;78.91
72591;SHT31;60625;51.212;5.952;2023-05-10T10:18:19;15.59;79.04
72591;SHT31;60625;51.212;5.952;2023-05-10T10:23:23;15.62;79.08
72591;SHT31;60625;51.212;5.952;2023-05-10T10:28:26;15.69;78.60
72591;SHT31;60625;51.212;5.952;2023-05-10T10:39:27;16.06;78.33
72591;SHT31;60625;51.212;5.952;2023-05-10T10:49:37;16.21;76.96
72591;SHT31;60625;51.212;5.952;2023-05-10T10:54:47;16.33;76.76
72591;SHT31;60625;51.212;5.952;2023-05-10T10:59:51;16.47;76.78
72591;SHT31;60625;51.212;5.952;2023-05-10T11:05:25;16.58;76.47
72591;SHT31;60625;51.212;5.952;2023-05-10T11:10:36;16.58;75.99
72591;SHT31;60625;51.212;5.952;2023-05-10T11:15:38;16.56;76.06
72591;SHT31;60625;51.212;5.952;2023-05-10T11:20:39;16.57;76.18
72591;SHT31;60625;51.212;5.952;2023-05-10T11:25:41;16.66;76.07
72591;SHT31;60625;51.212;5.952;2023-05-10T11:30:44;16.73;75.47
72591;SHT31;60625;51.212;5.952;2023-05-10T11:35:45;16.85;75.04
72591;SHT31;60625;51.212;5.952;2023-05-10T11:40:46;16.93;74.76
72591;SHT31;60625;51.212;5.952;2023-05-10T11:45:53;17.15;74.95
72591;SHT31;60625;51.212;5.952;2023-05-10T11:50:54;17.42;73.73
72591;SHT31;60625;51.212;5.952;2023-05-10T11:56:07;17.73;72.74
72591;SHT31;60625;51.212;5.952;2023-05-10T12:01:10;18.13;71.79
72591;SHT31;60625;51.212;5.952;2023-05-10T12:06:11;18.61;71.22
72591;SHT31;60625;51.212;5.952;2023-05-10T12:11:11;19.11;69.83
72591;SHT31;60625;51.212;5.952;2023-05-10T12:16:19;19.55;68.26
72591;SHT31;60625;51.212;5.952;2023-05-10T12:21:21;19.41;66.20
72591;SHT31;60625;51.212;5.952;2023-05-10T12:26:25;19.28;66.96
72591;SHT31;60625;51.212;5.952;2023-05-10T12:31:26;19.31;66.42
72591;SHT31;60625;51.212;5.952;2023-05-10T12:36:27;19.39;65.48
72591;SHT31;60625;51.212;5.952;2023-05-10T12:41:27;19.33;64.86
72591;SHT31;60625;51.212;5.952;2023-05-10T12:46:28;19.14;66.11
72591;SHT31;60625;51.212;5.952;2023-05-10T12:51:29;19.20;65.93
72591;SHT31;60625;51.212;5.952;2023-05-10T12:56:30;19.28;65.32
72591;SHT31;60625;51.212;5.952;2023-05-10T13:01:32;19.43;64.71
72591;SHT31;60625;51.212;5.952;2023-05-10T13:06:32;19.58;64.15
72591;SHT31;60625;51.212;5.952;2023-05-10T13:11:33;19.76;63.60
72591;SHT31;60625;51.212;5.952;2023-05-10T13:16:34;19.97;62.88
72591;SHT31;60625;51.212;5.952;2023-05-10T13:21:34;19.80;62.99
72591;SHT31;60625;51.212;5.952;2023-05-10T13:26:35;19.69;62.52
72591;SHT31;60625;51.212;5.952;2023-05-10T13:31:36;19.64;63.92
72591;SHT31;60625;51.212;5.952;2023-05-10T13:36:36;19.62;64.07
72591;SHT31;60625;51.212;5.952;2023-05-10T13:41:37;19.51;64.25
72591;SHT31;60625;51.212;5.952;2023-05-10T13:46:38;19.45;64.16
72591;SHT31;60625;51.212;5.952;2023-05-10T13:51:38;19.23;64.91
72591;SHT31;60625;51.212;5.952;2023-05-10T13:56:39;19.19;65.28
72591;SHT31;60625;51.212;5.952;2023-05-10T14:01:42;19.13;65.13
72591;SHT31;60625;51.212;5.952;2023-05-10T14:06:43;19.00;65.74
72591;SHT31;60625;51.212;5.952;2023-05-10T14:11:44;18.71;65.50
72591;SHT31;60625;51.212;5.952;2023-05-10T14:16:46;18.51;66.15
72591;SHT31;60625;51.212;5.952;2023-05-10T14:21:46;18.48;66.46
72591;SHT31;60625;51.212;5.952;2023-05-10T14:26:46;18.48;66.46
72591;SHT31;60625;51.212;5.952;2023-05-10T14:31:47;18.52;66.03
72591;SHT31;60625;51.212;5.952;2023-05-10T14:36:47;18.73;65.56
72591;SHT31;60625;51.212;5.952;2023-05-10T14:41:48;18.77;65.03
72591;SHT31;60625;51.212;5.952;2023-05-10T14:46:49;18.76;64.55
72591;SHT31;60625;51.212;5.952;2023-05-10T14:51:49;18.87;64.29
72591;SHT31;60625;51.212;5.952;2023-05-10T14:56:50;18.91;64.65
72591;SHT31;60625;51.212;5.952;2023-05-10T15:01:50;18.72;65.01
72591;SHT31;60625;51.212;5.952;2023-05-10T15:06:51;18.62;65.11
72591;SHT31;60625;51.212;5.952;2023-05-10T15:11:52;18.66;64.93
72591;SHT31;60625;51.212;5.952;2023-05-10T15:16:53;18.87;64.58
72591;SHT31;60625;51.212;5.952;2023-05-10T15:21:53;18.91;63.47
72591;SHT31;60625;51.212;5.952;2023-05-10T15:26:54;18.75;63.33
72591;SHT31;60625;51.212;5.952;2023-05-10T15:31:55;18.61;64.15
72591;SHT31;60625;51.212;5.952;2023-05-10T15:36:56;18.34;66.46
72591;SHT31;60625;51.212;5.952;2023-05-10T15:41:56;17.90;67.99
72591;SHT31;60625;51.212;5.952;2023-05-10T15:46:57;17.50;68.62
72591;SHT31;60625;51.212;5.952;2023-05-10T15:51:58;17.25;69.19
72591;SHT31;60625;51.212;5.952;2023-05-10T15:56:58;17.06;69.14
72591;SHT31;60625;51.212;5.952;2023-05-10T16:01:59;16.88;69.24
72591;SHT31;60625;51.212;5.952;2023-05-10T16:06:59;16.76;69.45
72591;SHT31;60625;51.212;5.952;2023-05-10T16:12:00;16.61;69.77
72591;SHT31;60625;51.212;5.952;2023-05-10T16:17:02;16.46;69.95
72591;SHT31;60625;51.212;5.952;2023-05-10T16:22:03;16.38;70.70
72591;SHT31;60625;51.212;5.952;2023-05-10T16:27:04;16.27;70.90
72591;SHT31;60625;51.212;5.952;2023-05-10T16:32:04;16.17;70.84
72591;SHT31;60625;51.212;5.952;2023-05-10T16:37:05;16.10;70.62
72591;SHT31;60625;51.212;5.952;2023-05-10T16:42:05;15.99;70.87
72591;SHT31;60625;51.212;5.952;2023-05-10T16:47:06;15.91;71.22
72591;SHT31;60625;51.212;5.952;2023-05-10T16:52:07;15.87;71.14
72591;SHT31;60625;51.212;5.952;2023-05-10T16:57:07;15.75;71.61
72591;SHT31;60625;51.212;5.952;2023-05-10T17:02:08;15.60;71.82
72591;SHT31;60625;51.212;5.952;2023-05-10T17:07:08;15.50;72.09
72591;SHT31;60625;51.212;5.952;2023-05-10T17:12:09;15.48;72.87
72591;SHT31;60625;51.212;5.952;2023-05-10T17:17:10;15.48;73.19
72591;SHT31;60625;51.212;5.952;2023-05-10T17:22:11;15.45;73.50
72591;SHT31;60625;51.212;5.952;2023-05-10T17:27:12;15.41;73.94
72591;SHT31;60625;51.212;5.952;2023-05-10T17:32:13;15.34;74.26
72591;SHT31;60625;51.212;5.952;2023-05-10T17:37:13;15.28;74.93
72591;SHT31;60625;51.212;5.952;2023-05-10T17:42:14;15.24;75.14
72591;SHT31;60625;51.212;5.952;2023-05-10T17:47:17;15.21;75.30
72591;SHT31;60625;51.212;5.952;2023-05-10T17:52:17;15.23;75.54
72591;SHT31;60625;51.212;5.952;2023-05-10T17:57:18;15.20;75.49
72591;SHT31;60625;51.212;5.952;2023-05-10T18:02:19;15.23;76.00
72591;SHT31;60625;51.212;5.952;2023-05-10T18:07:20;15.18;76.01
72591;SHT31;60625;51.212;5.952;2023-05-10T18:12:22;15.17;76.01
72591;SHT31;60625;51.212;5.952;2023-05-10T18:17:24;15.15;75.91
72591;SHT31;60625;51.212;5.952;2023-05-10T18:22:24;15.15;76.08
72591;SHT31;60625;51.212;5.952;2023-05-10T18:27:26;15.11;76.14
72591;SHT31;60625;51.212;5.952;2023-05-10T18:32:27;15.06;76.78
72591;SHT31;60625;51.212;5.952;2023-05-10T18:37:28;14.99;76.83
72591;SHT31;60625;51.212;5.952;2023-05-10T18:42:28;14.89;76.79
72591;SHT31;60625;51.212;5.952;2023-05-10T18:47:30;14.84;76.71
72591;SHT31;60625;51.212;5.952;2023-05-10T18:52:30;14.81;76.97
72591;SHT31;60625;51.212;5.952;2023-05-10T18:57:31;14.80;77.46
72591;SHT31;60625;51.212;5.952;2023-05-10T19:02:31;14.76;77.63
72591;SHT31;60625;51.212;5.952;2023-05-10T19:07:31;14.76;77.81
72591;SHT31;60625;51.212;5.952;2023-05-10T19:12:32;14.76;78.05
72591;SHT31;60625;51.212;5.952;2023-05-10T19:17:33;14.75;77.97
72591;SHT31;60625;51.212;5.952;2023-05-10T19:22:35;14.74;78.10
72591;SHT31;60625;51.212;5.952;2023-05-10T19:27:36;14.72;78.11
72591;SHT31;60625;51.212;5.952;2023-05-10T19:32:36;14.71;78.24
72591;SHT31;60625;51.212;5.952;2023-05-10T19:37:37;14.71;78.26
72591;SHT31;60625;51.212;5.952;2023-05-10T19:42:37;14.63;78.25
72591;SHT31;60625;51.212;5.952;2023-05-10T19:47:38;14.60;77.97
72591;SHT31;60625;51.212;5.952;2023-05-10T19:52:39;14.62;78.39
72591;SHT31;60625;51.212;5.952;2023-05-10T19:57:39;14.63;78.33
72591;SHT31;60625;51.212;5.952;2023-05-10T20:02:40;14.63;77.96
72591;SHT31;60625;51.212;5.952;2023-05-10T20:07:40;14.61;78.35
72591;SHT31;60625;51.212;5.952;2023-05-10T20:12:40;14.58;78.29
72591;SHT31;60625;51.212;5.952;2023-05-10T20:17:49;14.52;77.82
72591;SHT31;60625;51.212;5.952;2023-05-10T20:22:52;14.44;77.75
72591;SHT31;60625;51.212;5.952;2023-05-10T20:27:52;14.36;77.93
72591;SHT31;60625;51.212;5.952;2023-05-10T20:32:53;14.31;78.41
72591;SHT31;60625;51.212;5.952;2023-05-10T20:37:53;14.26;78.65
72591;SHT31;60625;51.212;5.952;2023-05-10T20:42:54;14.25;78.75
72591;SHT31;60625;51.212;5.952;2023-05-10T20:47:55;14.23;79.00
72591;SHT31;60625;51.212;5.952;2023-05-10T20:52:56;14.18;79.46
72591;SHT31;60625;51.212;5.952;2023-05-10T20:57:57;14.11;79.85
72591;SHT31;60625;51.212;5.952;2023-05-10T21:02:58;14.07;79.95
72591;SHT31;60625;51.212;5.952;2023-05-10T21:07:58;14.00;80.18
72591;SHT31;60625;51.212;5.952;2023-05-10T21:12:58;13.96;80.33
72591;SHT31;60625;51.212;5.952;2023-05-10T21:17:59;13.94;80.50
72591;SHT31;60625;51.212;5.952;2023-05-10T21:23:00;13.93;80.61
72591;SHT31;60625;51.212;5.952;2023-05-10T21:28:00;13.92;80.47
72591;SHT31;60625;51.212;5.952;2023-05-10T21:33:01;13.89;80.63
72591;SHT31;60625;51.212;5.952;2023-05-10T21:38:02;13.88;80.87
72591;SHT31;60625;51.212;5.952;2023-05-10T21:43:02;13.84;81.08
72591;SHT31;60625;51.212;5.952;2023-05-10T21:48:03;13.81;81.33
72591;SHT31;60625;51.212;5.952;2023-05-10T21:53:04;13.81;81.40
72591;SHT31;60625;51.212;5.952;2023-05-10T21:58:05;13.81;81.42
72591;SHT31;60625;51.212;5.952;2023-05-10T22:03:05;13.82;81.50
72591;SHT31;60625;51.212;5.952;2023-05-10T22:08:05;13.80;81.57
72591;SHT31;60625;51.212;5.952;2023-05-10T22:13:06;13.81;81.61
72591;SHT31;60625;51.212;5.952;2023-05-10T22:18:07;13.83;81.60
72591;SHT31;60625;51.212;5.952;2023-05-10T22:23:08;13.84;81.58
72591;SHT31;60625;51.212;5.952;2023-05-10T22:28:08;13.84;81.56
72591;SHT31;60625;51.212;5.952;2023-05-10T22:33:09;13.83;81.58
72591;SHT31;60625;51.212;5.952;2023-05-10T22:38:10;13.81;81.73
72591;SHT31;60625;51.212;5.952;2023-05-10T22:43:10;13.78;81.86
72591;SHT31;60625;51.212;5.952;2023-05-10T22:48:11;13.76;82.04
72591;SHT31;60625;51.212;5.952;2023-05-10T22:53:14;13.73;82.10
72591;SHT31;60625;51.212;5.952;2023-05-10T22:58:15;13.70;82.07
72591;SHT31;60625;51.212;5.952;2023-05-10T23:03:16;13.69;82.04
72591;SHT31;60625;51.212;5.952;2023-05-10T23:08:17;13.67;81.88
72591;SHT31;60625;51.212;5.952;2023-05-10T23:13:17;13.66;81.98
72591;SHT31;60625;51.212;5.952;2023-05-10T23:18:20;13.66;81.92
72591;SHT31;60625;51.212;5.952;2023-05-10T23:23:20;13.66;81.99
72591;SHT31;60625;51.212;5.952;2023-05-10T23:28:21;13.66;82.21
72591;SHT31;60625;51.212;5.952;2023-05-10T23:33:22;13.66;82.29
72591;SHT31;60625;51.212;5.952;2023-05-10T23:38:23;13.64;82.39
72591;SHT31;60625;51.212;5.952;2023-05-10T23:43:24;13.61;82.56
72591;SHT31;60625;51.212;5.952;2023-05-10T23:48:25;13.55;82.93
72591;SHT31;60625;51.212;5.952;2023-05-10T23:53:25;13.53;83.21
72591;SHT31;60625;51.212;5.952;2023-05-10T23:58:26;13.48;83.43
